createdAt,value
2023-02-01T00:00:35.410Z,18.38
2023-02-01T00:03:02.826Z,17.25
2023-02-01T00:05:29.986Z,16.23
2023-02-01T00:07:57.142Z,14.52
2023-02-01T00:10:24.565Z,15.05
2023-02-01T00:12:51.980Z,12.02
2023-02-01T00:15:19.169Z,16.75
2023-02-01T00:17:46.363Z,12.15
2023-02-01T00:20:13.571Z,17.42
2023-02-01T00:22:40.836Z,13.05
2023-02-01T00:25:08.471Z,13.23
2023-02-01T00:27:35.723Z,14.88
2023-02-01T00:30:04.503Z,19.13
2023-02-01T00:32:33.014Z,17.60
2023-02-01T00:35:00.225Z,21.95
2023-02-01T00:37:27.514Z,17.85
2023-02-01T00:39:56.752Z,17.42
2023-02-01T00:42:24.020Z,16.17
2023-02-01T00:44:51.202Z,18.13
2023-02-01T00:47:18.412Z,18.77
2023-02-01T00:49:46.050Z,19.23
2023-02-01T00:52:13.251Z,13.18
2023-02-01T00:54:40.379Z,14.52
2023-02-01T00:57:07.681Z,17.77
2023-02-01T00:59:34.856Z,19.05
2023-02-01T01:02:02.189Z,17.75
2023-02-01T01:04:29.581Z,12.82
2023-02-01T01:06:56.833Z,14.07
2023-02-01T01:09:23.932Z,13.93
2023-02-01T01:11:52.254Z,15.80
2023-02-01T01:14:19.430Z,18.60
2023-02-01T01:16:46.619Z,13.73
2023-02-01T01:19:14.201Z,21.05
2023-02-01T01:21:41.433Z,16.02
2023-02-01T01:24:08.642Z,14.07
2023-02-01T01:26:35.961Z,15.30
2023-02-01T01:29:03.885Z,15.88
2023-02-01T01:31:32.933Z,13.90
2023-02-01T01:34:01.405Z,17.23
2023-02-01T01:36:30.618Z,13.80
2023-02-01T01:38:58.336Z,12.20
2023-02-01T01:41:29.937Z,18.02
2023-02-01T01:44:05.677Z,19.02
2023-02-01T01:46:36.509Z,18.58
2023-02-01T01:49:27.027Z,14.27
2023-02-01T01:51:58.124Z,13.73
2023-02-01T01:54:30.378Z,18.52
2023-02-01T01:57:07.779Z,19.55
2023-02-01T01:59:37.630Z,15.75
2023-02-01T02:02:05.027Z,17.90
2023-02-01T02:04:34.601Z,15.38
2023-02-01T02:07:07.882Z,15.45
2023-02-01T02:09:35.398Z,17.33
2023-02-01T02:12:02.560Z,16.15
2023-02-01T02:14:30.839Z,15.63
2023-02-01T02:17:28.103Z,13.23
2023-02-01T02:20:33.850Z,21.98
2023-02-01T02:23:32.207Z,18.42
2023-02-01T02:26:19.314Z,20.98
2023-02-01T02:29:12.463Z,22.15
2023-02-01T02:32:13.992Z,22.67
2023-02-01T02:34:58.553Z,19.58
2023-02-01T02:38:05.624Z,17.80
2023-02-01T02:40:46.834Z,16.33
2023-02-01T02:43:53.292Z,24.38
2023-02-01T02:47:06.491Z,23.48
2023-02-01T02:50:05.715Z,18.90
2023-02-01T02:52:57.163Z,13.77
2023-02-01T02:55:28.074Z,20.48
2023-02-01T02:58:17.363Z,25.00
2023-02-01T03:01:06.608Z,21.30
2023-02-01T03:03:58.983Z,16.40
2023-02-01T03:06:26.494Z,23.48
2023-02-01T03:08:57.930Z,19.45
2023-02-01T03:11:46.256Z,26.23
2023-02-01T03:14:16.369Z,32.58
2023-02-01T03:16:55.972Z,21.65
2023-02-01T03:19:29.683Z,22.95
2023-02-01T03:22:05.073Z,24.45
2023-02-01T03:24:56.562Z,22.10
2023-02-01T03:27:37.048Z,20.38
2023-02-01T03:30:21.046Z,16.52
2023-02-01T03:33:12.512Z,26.67
2023-02-01T03:35:49.663Z,26.00
2023-02-01T03:38:45.175Z,20.58
2023-02-01T03:41:39.699Z,14.50
2023-02-01T03:44:36.632Z,24.30
2023-02-01T03:47:10.164Z,23.50
2023-02-01T03:49:45.427Z,22.45
2023-02-01T03:52:23.875Z,26.48
2023-02-01T03:54:52.731Z,21.92
2023-02-01T03:57:26.543Z,19.85
2023-02-01T03:59:53.965Z,16.15
2023-02-01T04:02:22.161Z,15.48
2023-02-01T04:04:49.600Z,15.82
2023-02-01T04:07:19.875Z,19.50
2023-02-01T04:09:47.105Z,20.08
2023-02-01T04:12:14.201Z,16.90
2023-02-01T04:14:41.483Z,18.08
2023-02-01T04:17:08.723Z,19.73
2023-02-01T04:19:35.952Z,21.33
2023-02-01T04:22:03.154Z,27.65
2023-02-01T04:24:30.361Z,21.90
2023-02-01T04:26:57.577Z,26.42
2023-02-01T04:29:24.856Z,23.15
2023-02-01T04:31:52.060Z,23.73
2023-02-01T04:34:19.493Z,21.05
2023-02-01T04:36:47.433Z,18.67
2023-02-01T04:39:14.923Z,20.30
2023-02-01T04:41:42.286Z,17.08
2023-02-01T04:44:15.594Z,24.00
2023-02-01T04:46:43.365Z,20.70
2023-02-01T04:49:11.994Z,16.55
2023-02-01T04:51:39.907Z,17.67
2023-02-01T04:54:07.456Z,14.35
2023-02-01T04:56:38.427Z,19.73
2023-02-01T04:59:06.327Z,21.30
2023-02-01T05:01:34.210Z,18.08
2023-02-01T05:04:01.470Z,15.82
2023-02-01T05:06:28.695Z,22.20
2023-02-01T05:08:55.905Z,21.70
2023-02-01T05:11:43.005Z,12.85
2023-02-01T05:14:10.184Z,19.58
2023-02-01T05:16:37.276Z,15.90
2023-02-01T05:19:04.579Z,17.27
2023-02-01T05:21:31.675Z,21.40
2023-02-01T05:24:18.906Z,19.38
2023-02-01T05:26:47.942Z,17.50
2023-02-01T05:29:15.914Z,18.80
2023-02-01T05:31:45.161Z,22.25
2023-02-01T05:34:12.676Z,20.00
2023-02-01T05:36:39.986Z,24.67
2023-02-01T05:39:07.308Z,16.58
2023-02-01T05:41:34.740Z,20.58
2023-02-01T05:44:01.896Z,17.65
2023-02-01T05:46:29.372Z,13.93
2023-02-01T05:48:56.624Z,15.13
2023-02-01T05:51:23.875Z,17.25
2023-02-01T05:53:51.094Z,20.38
2023-02-01T05:56:18.313Z,15.32
2023-02-01T05:58:45.459Z,20.90
2023-02-01T06:01:12.753Z,17.55
2023-02-01T06:03:39.914Z,25.80
2023-02-01T06:06:07.321Z,25.33
2023-02-01T06:08:34.558Z,20.65
2023-02-01T06:11:05.014Z,22.08
2023-02-01T06:13:34.562Z,20.00
2023-02-01T06:16:04.281Z,18.77
2023-02-01T06:18:31.792Z,19.92
2023-02-01T06:21:03.273Z,23.73
2023-02-01T06:23:31.790Z,19.95
2023-02-01T06:26:07.161Z,19.90
2023-02-01T06:28:35.369Z,21.50
2023-02-01T06:31:10.241Z,21.52
2023-02-01T06:33:38.096Z,31.35
2023-02-01T06:36:07.719Z,18.75
2023-02-01T06:38:36.119Z,26.15
2023-02-01T06:41:04.692Z,21.95
2023-02-01T06:43:33.844Z,23.13
2023-02-01T06:46:03.289Z,18.55
2023-02-01T06:48:31.494Z,24.20
2023-02-01T06:50:58.696Z,22.73
2023-02-01T06:53:26.195Z,24.30
2023-02-01T06:55:56.493Z,23.05
2023-02-01T06:58:24.560Z,21.30
2023-02-01T07:00:52.120Z,22.25
2023-02-01T07:03:19.395Z,21.45
2023-02-01T07:05:46.515Z,25.77
2023-02-01T07:08:13.896Z,24.92
2023-02-01T07:10:41.269Z,24.58
2023-02-01T07:13:08.616Z,26.40
2023-02-01T07:15:35.790Z,26.55
2023-02-01T07:18:03.176Z,23.85
2023-02-01T07:20:30.275Z,23.75
2023-02-01T07:22:58.154Z,28.27
2023-02-01T07:25:25.914Z,21.00
2023-02-01T07:27:53.119Z,23.98
2023-02-01T07:30:20.308Z,25.85
2023-02-01T07:32:47.730Z,22.42
2023-02-01T07:35:15.270Z,28.27
2023-02-01T07:37:42.495Z,22.52
2023-02-01T07:40:10.456Z,27.95
2023-02-01T07:42:37.723Z,20.10
2023-02-01T07:45:20.348Z,20.73
2023-02-01T07:47:48.134Z,18.92
2023-02-01T07:50:15.435Z,19.17
2023-02-01T07:52:43.024Z,18.95
2023-02-01T07:55:10.855Z,17.38
2023-02-01T07:57:38.076Z,18.27
2023-02-01T08:00:25.918Z,17.90
2023-02-01T08:02:53.252Z,23.35
2023-02-01T08:05:20.423Z,21.80
2023-02-01T08:07:51.235Z,26.77
2023-02-01T08:10:19.615Z,19.60
2023-02-01T08:12:48.848Z,32.80
2023-02-01T08:15:16.942Z,25.40
2023-02-01T08:17:52.114Z,22.50
2023-02-01T08:20:20.335Z,26.15
2023-02-01T08:22:47.546Z,19.23
2023-02-01T08:25:14.823Z,20.35
2023-02-01T08:27:42.108Z,20.33
2023-02-01T08:30:10.645Z,23.77
2023-02-01T08:32:37.886Z,23.13
2023-02-01T08:35:05.763Z,22.42
2023-02-01T08:37:33.274Z,19.05
2023-02-01T08:40:00.657Z,22.05
2023-02-01T08:42:47.841Z,30.70
2023-02-01T08:45:15.110Z,24.23
2023-02-01T08:47:42.196Z,26.65
2023-02-01T08:50:10.397Z,21.08
2023-02-01T08:52:38.355Z,22.20
2023-02-01T08:55:06.836Z,23.15
2023-02-01T08:57:34.996Z,21.52
2023-02-01T09:00:03.291Z,20.85
2023-02-01T09:02:30.446Z,22.92
2023-02-01T09:05:01.036Z,28.08
2023-02-01T09:07:28.415Z,27.08
2023-02-01T09:09:57.325Z,30.10
2023-02-01T09:12:24.806Z,23.08
2023-02-01T09:14:51.968Z,24.92
2023-02-01T09:17:19.222Z,23.67
2023-02-01T09:19:46.467Z,23.92
2023-02-01T09:22:13.669Z,23.48
2023-02-01T09:24:40.878Z,17.45
2023-02-01T09:27:08.275Z,20.05
2023-02-01T09:29:35.453Z,20.92
2023-02-01T09:32:04.452Z,24.35
2023-02-01T09:34:32.167Z,24.10
2023-02-01T09:36:59.476Z,24.02
2023-02-01T09:39:26.680Z,17.23
2023-02-01T09:42:24.094Z,20.10
2023-02-01T09:45:11.154Z,22.05
2023-02-01T09:47:46.635Z,20.08
2023-02-01T09:50:20.604Z,20.55
2023-02-01T09:53:19.105Z,17.55
2023-02-01T09:55:50.525Z,26.65
2023-02-01T09:58:43.223Z,16.52
2023-02-01T10:01:23.462Z,31.15
2023-02-01T10:03:56.941Z,22.30
2023-02-01T10:06:54.415Z,19.13
2023-02-01T10:10:01.596Z,25.83
2023-02-01T10:12:52.315Z,25.52
2023-02-01T10:15:59.506Z,22.70
2023-02-01T10:19:06.464Z,30.92
2023-02-01T10:21:47.597Z,32.42
2023-02-01T10:24:22.373Z,27.13
2023-02-01T10:27:02.388Z,19.88
2023-02-01T10:29:38.157Z,24.10
2023-02-01T10:32:16.432Z,19.40
2023-02-01T10:34:47.288Z,24.80
2023-02-01T10:37:34.981Z,23.15
2023-02-01T10:40:24.198Z,24.58
2023-02-01T10:42:56.160Z,22.05
2023-02-01T10:45:27.087Z,22.58
2023-02-01T10:47:57.536Z,21.05
2023-02-01T10:50:54.431Z,30.85
2023-02-01T10:53:30.451Z,29.10
2023-02-01T10:55:58.919Z,30.90
2023-02-01T10:58:33.878Z,31.30
2023-02-01T11:01:06.363Z,25.42
2023-02-01T11:03:38.635Z,23.33
2023-02-01T11:06:28.335Z,30.15
2023-02-01T11:08:58.931Z,34.67
2023-02-01T11:11:26.756Z,30.35
2023-02-01T11:14:00.328Z,26.15
2023-02-01T11:16:35.815Z,22.00
2023-02-01T11:19:04.290Z,21.73
2023-02-01T11:21:31.805Z,20.85
2023-02-01T11:24:05.077Z,19.00
2023-02-01T11:26:34.130Z,21.35
2023-02-01T11:29:05.571Z,18.60
2023-02-01T11:31:35.656Z,22.90
2023-02-01T11:34:25.812Z,26.73
2023-02-01T11:36:56.556Z,20.88
2023-02-01T11:39:43.713Z,18.85
2023-02-01T11:42:16.436Z,17.25
2023-02-01T11:44:46.255Z,15.95
2023-02-01T11:47:40.105Z,17.98
2023-02-01T11:50:18.487Z,12.55
2023-02-01T11:53:14.009Z,15.35
2023-02-01T11:55:53.498Z,20.73
2023-02-01T11:59:00.531Z,15.70
2023-02-01T12:01:53.855Z,14.65
2023-02-01T12:05:00.944Z,14.35
2023-02-01T12:08:07.986Z,19.52
2023-02-01T12:11:15.075Z,11.73
2023-02-01T12:14:02.144Z,18.48
2023-02-01T12:17:09.256Z,13.75
2023-02-01T12:20:07.767Z,14.18
2023-02-01T12:23:00.955Z,18.23
2023-02-01T12:25:53.196Z,14.70
2023-02-01T12:29:00.255Z,18.48
2023-02-01T12:31:55.938Z,14.18
2023-02-01T12:34:55.166Z,16.63
2023-02-01T12:37:56.852Z,13.13
2023-02-01T12:40:50.745Z,24.55
2023-02-01T12:43:34.293Z,19.90
2023-02-01T12:46:13.532Z,14.10
2023-02-01T12:48:51.034Z,16.08
2023-02-01T12:51:22.526Z,17.75
2023-02-01T12:54:05.962Z,20.45
2023-02-01T12:56:53.099Z,18.92
2023-02-01T12:59:43.583Z,11.30
2023-02-01T13:02:34.357Z,16.27
2023-02-01T13:05:22.158Z,19.45
2023-02-01T13:08:03.407Z,13.15
2023-02-01T13:10:34.303Z,20.05
2023-02-01T13:13:24.101Z,11.40
2023-02-01T13:16:02.914Z,14.20
2023-02-01T13:18:38.182Z,13.45
2023-02-01T13:21:09.706Z,13.50
2023-02-01T13:23:40.188Z,12.60
2023-02-01T13:26:07.645Z,12.07
2023-02-01T13:29:01.592Z,13.88
2023-02-01T13:32:08.556Z,15.18
2023-02-01T13:35:17.236Z,15.60
2023-02-01T13:38:21.315Z,13.52
2023-02-01T13:41:29.136Z,12.80
2023-02-01T13:44:02.965Z,14.10
2023-02-01T13:49:02.189Z,11.38
2023-02-01T13:51:47.009Z,11.15
2023-02-01T13:54:37.428Z,9.77
2023-02-01T13:57:07.575Z,6.95
2023-02-01T13:59:56.135Z,9.82
2023-02-01T14:03:02.815Z,9.32
2023-02-01T14:05:49.934Z,11.95
2023-02-01T14:08:39.435Z,13.63
2023-02-01T14:11:06.855Z,11.77
2023-02-01T14:13:42.195Z,9.18
2023-02-01T14:16:15.239Z,15.35
2023-02-01T14:18:57.455Z,11.55
2023-02-01T14:21:34.468Z,11.73
2023-02-01T14:24:13.836Z,12.45
2023-02-01T14:27:02.586Z,8.40
2023-02-01T14:29:37.617Z,11.48
2023-02-01T14:32:20.886Z,12.85
2023-02-01T14:34:55.714Z,12.38
2023-02-01T14:37:28.696Z,12.15
2023-02-01T14:40:26.087Z,10.50
2023-02-01T14:42:54.720Z,11.93
2023-02-01T14:45:25.586Z,10.45
2023-02-01T14:47:58.511Z,12.18
2023-02-01T14:50:43.196Z,11.13
2023-02-01T14:53:25.818Z,11.40
2023-02-01T14:56:15.078Z,12.35
2023-02-01T14:59:10.903Z,12.55
2023-02-01T15:01:40.191Z,8.38
2023-02-01T15:04:19.434Z,12.73
2023-02-01T15:06:58.285Z,11.98
2023-02-01T15:09:48.443Z,14.00
2023-02-01T15:12:27.868Z,10.23
2023-02-01T15:15:18.281Z,12.32
2023-02-01T15:18:05.413Z,10.70
2023-02-01T15:20:34.190Z,12.55
2023-02-01T15:23:08.911Z,12.20
2023-02-01T15:25:39.759Z,10.45
2023-02-01T15:28:13.036Z,11.50
2023-02-01T15:30:40.654Z,13.75
2023-02-01T15:33:16.857Z,12.15
2023-02-01T15:35:47.802Z,11.45
2023-02-01T15:38:42.860Z,11.52
2023-02-01T15:41:22.944Z,18.70
2023-02-01T15:44:17.068Z,11.13
2023-02-01T15:46:48.581Z,11.20
2023-02-01T15:49:25.258Z,14.38
2023-02-01T15:51:53.238Z,14.20
2023-02-01T15:55:00.379Z,12.63
2023-02-01T15:57:36.090Z,17.40
2023-02-01T16:00:08.879Z,10.57
2023-02-01T16:02:51.984Z,12.40
2023-02-01T16:05:40.909Z,10.02
2023-02-01T16:08:24.798Z,11.65
2023-02-01T16:10:55.095Z,10.98
2023-02-01T16:13:22.639Z,12.93
2023-02-01T16:15:50.576Z,12.23
2023-02-01T16:18:19.121Z,11.32
2023-02-01T16:20:48.277Z,10.55
2023-02-01T16:23:15.641Z,14.45
2023-02-01T16:25:43.084Z,16.58
2023-02-01T16:28:10.373Z,16.10
2023-02-01T16:30:37.918Z,13.68
2023-02-01T16:33:06.435Z,16.20
2023-02-01T16:35:36.788Z,11.32
2023-02-01T16:38:09.816Z,13.15
2023-02-01T16:40:37.927Z,12.77
2023-02-01T16:43:26.646Z,13.32
2023-02-01T16:45:56.404Z,10.82
2023-02-01T16:48:29.389Z,11.38
2023-02-01T16:51:01.055Z,14.93
2023-02-01T16:53:31.824Z,14.30
2023-02-01T16:56:00.182Z,13.25
2023-02-01T16:58:28.305Z,13.52
2023-02-01T17:00:55.940Z,15.45
2023-02-01T17:03:23.588Z,12.15
2023-02-01T17:05:54.268Z,11.82
2023-02-01T17:08:42.753Z,14.02
2023-02-01T17:11:12.301Z,11.23
2023-02-01T17:13:41.935Z,15.45
2023-02-01T17:16:30.586Z,15.10
2023-02-01T17:19:04.464Z,16.88
2023-02-01T17:24:03.932Z,15.88
2023-02-01T17:26:31.012Z,14.02
2023-02-01T17:28:58.231Z,14.32
2023-02-01T17:31:25.432Z,16.38
2023-02-01T17:33:52.684Z,18.27
2023-02-01T17:36:19.913Z,18.80
2023-02-01T17:38:56.679Z,19.85
2023-02-01T17:41:27.283Z,16.83
2023-02-01T17:43:54.523Z,16.30
2023-02-01T17:46:27.349Z,18.77
2023-02-01T17:48:55.636Z,16.57
2023-02-01T17:51:28.158Z,15.77
2023-02-01T17:53:55.626Z,13.13
2023-02-01T17:56:25.097Z,16.65
2023-02-01T17:58:52.679Z,15.93
2023-02-01T18:01:24.534Z,16.67
2023-02-01T18:03:52.163Z,19.38
2023-02-01T18:06:23.649Z,18.33
2023-02-01T18:08:51.235Z,14.57
2023-02-01T18:11:20.714Z,13.75
2023-02-01T18:13:50.483Z,14.60
2023-02-01T18:16:24.251Z,18.30
2023-02-01T18:21:21.231Z,20.20
2023-02-01T18:23:49.667Z,16.05
2023-02-01T18:26:18.644Z,17.63
2023-02-01T18:28:45.908Z,18.67
2023-02-01T18:31:34.073Z,15.55
2023-02-01T18:34:01.533Z,16.52
2023-02-01T18:36:30.564Z,15.65
2023-02-01T18:38:57.976Z,13.40
2023-02-01T18:41:26.152Z,12.23
2023-02-01T18:43:53.697Z,13.45
2023-02-01T18:46:22.971Z,12.73
2023-02-01T18:48:50.363Z,13.40
2023-02-01T18:51:20.276Z,12.07
2023-02-01T18:53:48.736Z,11.95
2023-02-01T18:56:18.562Z,15.00
2023-02-01T18:58:46.115Z,15.98
2023-02-01T19:01:19.844Z,16.17
2023-02-01T19:03:56.648Z,16.25
2023-02-01T19:06:30.334Z,15.43
2023-02-01T19:08:57.473Z,18.65
2023-02-01T19:11:25.153Z,14.95
2023-02-01T19:13:52.345Z,15.35
2023-02-01T19:16:19.584Z,21.58
2023-02-01T19:18:52.153Z,22.88
2023-02-01T19:21:19.516Z,14.27
2023-02-01T19:23:46.660Z,16.25
2023-02-01T19:26:16.254Z,18.85
2023-02-01T19:28:47.034Z,22.67
2023-02-01T19:31:14.983Z,28.30
2023-02-01T19:33:42.193Z,24.90
2023-02-01T19:36:11.052Z,26.52
2023-02-01T19:38:38.942Z,26.67
2023-02-01T19:41:06.427Z,21.13
2023-02-01T19:43:33.762Z,16.33
2023-02-01T19:46:03.143Z,18.42
2023-02-01T19:48:31.489Z,19.77
2023-02-01T19:50:59.521Z,21.50
2023-02-01T19:53:28.152Z,19.83
2023-02-01T19:55:57.012Z,19.92
2023-02-01T19:58:25.797Z,16.48
2023-02-01T20:00:54.557Z,24.45
2023-02-01T20:03:22.776Z,18.00
2023-02-01T20:05:52.799Z,17.80
2023-02-01T20:08:20.232Z,19.92
2023-02-01T20:10:47.452Z,27.63
2023-02-01T20:13:15.314Z,18.35
2023-02-01T20:15:42.970Z,16.70
2023-02-01T20:18:10.510Z,21.08
2023-02-01T20:20:37.917Z,16.60
2023-02-01T20:23:06.452Z,18.67
2023-02-01T20:25:36.131Z,20.05
2023-02-01T20:28:03.636Z,19.10
2023-02-01T20:30:32.421Z,15.30
2023-02-01T20:32:59.555Z,20.13
2023-02-01T20:35:27.044Z,16.23
2023-02-01T20:37:56.741Z,20.67
2023-02-01T20:40:24.033Z,14.60
2023-02-01T20:42:51.134Z,19.75
2023-02-01T20:45:18.476Z,17.83
2023-02-01T20:47:52.696Z,18.92
2023-02-01T20:50:20.165Z,27.27
2023-02-01T20:52:47.498Z,22.95
2023-02-01T20:55:14.686Z,16.40
2023-02-01T20:57:42.446Z,18.83
2023-02-01T21:00:10.442Z,26.17
2023-02-01T21:02:38.288Z,23.23
2023-02-01T21:05:06.380Z,20.90
2023-02-01T21:07:33.748Z,21.23
2023-02-01T21:10:00.899Z,20.33
2023-02-01T21:12:28.137Z,22.15
2023-02-01T21:14:55.461Z,19.60
2023-02-01T21:17:23.193Z,22.20
2023-02-01T21:19:50.490Z,24.67
2023-02-01T21:22:17.632Z,20.70
2023-02-01T21:24:45.683Z,15.63
2023-02-01T21:27:13.841Z,17.42
2023-02-01T21:29:41.128Z,18.05
2023-02-01T21:32:09.432Z,22.02
2023-02-01T21:34:36.896Z,20.48
2023-02-01T21:37:04.275Z,23.27
2023-02-01T21:39:31.581Z,21.25
2023-02-01T21:42:18.704Z,22.98
2023-02-01T21:44:47.489Z,20.75
2023-02-01T21:47:17.425Z,23.95
2023-02-01T21:49:47.218Z,17.52
2023-02-01T21:52:16.247Z,28.25
2023-02-01T21:54:43.698Z,20.75
2023-02-01T21:57:14.041Z,17.88
2023-02-01T21:59:42.772Z,18.15
2023-02-01T22:02:14.778Z,15.52
2023-02-01T22:04:42.989Z,15.90
2023-02-01T22:07:11.002Z,23.08
2023-02-01T22:09:40.527Z,19.10
2023-02-01T22:12:09.839Z,19.80
2023-02-01T22:14:37.038Z,16.05
2023-02-01T22:17:04.623Z,15.57
2023-02-01T22:19:31.819Z,19.73
2023-02-01T22:21:58.943Z,18.33
2023-02-01T22:24:26.259Z,15.60
2023-02-01T22:26:53.391Z,23.27
2023-02-01T22:29:20.638Z,16.58
2023-02-01T22:31:48.277Z,14.65
2023-02-01T22:34:15.891Z,18.05
2023-02-01T22:36:43.264Z,20.92
2023-02-01T22:39:10.765Z,19.63
2023-02-01T22:41:38.213Z,18.73
2023-02-01T22:44:05.982Z,24.17
2023-02-01T22:46:33.736Z,14.98
2023-02-01T22:49:01.087Z,14.38
2023-02-01T22:51:30.744Z,13.45
2023-02-01T22:53:58.809Z,15.07
2023-02-01T22:56:35.811Z,20.15
2023-02-01T22:59:07.528Z,16.77
2023-02-01T23:01:35.499Z,16.33
2023-02-01T23:04:05.687Z,21.50
2023-02-01T23:06:33.943Z,15.93
2023-02-01T23:09:04.411Z,16.08
2023-02-01T23:11:31.931Z,17.98
2023-02-01T23:13:59.167Z,17.73
2023-02-01T23:16:27.425Z,23.73
2023-02-01T23:18:54.805Z,21.08
2023-02-01T23:21:23.475Z,26.27
2023-02-01T23:23:54.112Z,20.88
2023-02-01T23:26:23.039Z,20.45
2023-02-01T23:28:52.320Z,16.15
2023-02-01T23:31:19.796Z,18.13
2023-02-01T23:33:49.080Z,15.20
2023-02-01T23:36:17.325Z,15.05
2023-02-01T23:38:45.521Z,14.43
2023-02-01T23:41:14.760Z,18.67
2023-02-01T23:44:02.930Z,18.25
2023-02-01T23:46:41.323Z,21.15
2023-02-01T23:49:09.890Z,24.35
2023-02-01T23:51:37.733Z,26.85
2023-02-01T23:54:06.041Z,18.08
2023-02-01T23:56:37.333Z,22.73
2023-02-01T23:59:07.441Z,23.83
